Terminal Aerodrome Forecast
Issued by NWS

Home | Current Version | Previous Version | Graphics & Text | Print | Product List | Glossary On
Versions: 1 2 3 4 5 6 7 8 9 10 11 12 13 14 15 16 17 18 19 20 21 22 23 24 25 26 27 28 29 30 31 32
000
FTUS43 KLOT 242200 AAC
TAFORD
TAF AMD
KORD 242213Z 2422/2524 26007KT P6SM OVC008
      TEMPO 2422/2423 BKN012
     FM250700 06003KT 6SM HZ OVC008
     FM251100 08010G18KT 3SM -SN OVC012
     FM251200 05012G25KT 1 1/2SM -SN BR SCT008 OVC010
      TEMPO 2514/2517 3/4SM -SN BR OVC006
     FM251800 05017G27KT 3SM -SN OVC015
     FM252300 04015G26KT 6SM BR VCSH OVC019=

USA.gov is the U.S. government's official web portal to all federal, state and local government web resources and services.